createdAt,value
2023-03-31T00:07:38.562Z,13.33
2023-03-31T00:12:40.617Z,13.32
2023-03-31T00:15:07.694Z,13.29
2023-03-31T00:17:34.277Z,13.32
2023-03-31T00:20:08.747Z,13.31
2023-03-31T00:23:14.652Z,13.21
2023-03-31T00:28:36.790Z,13.21
2023-03-31T00:42:46.615Z,12.91
2023-03-31T00:45:18.755Z,12.93
2023-03-31T00:47:56.700Z,12.86
2023-03-31T00:50:29.033Z,12.79
2023-03-31T00:53:10.759Z,12.67
2023-03-31T00:59:14.655Z,12.47
2023-03-31T01:02:02.846Z,12.43
2023-03-31T01:04:36.812Z,12.40
2023-03-31T01:07:17.275Z,12.28
2023-03-31T01:09:47.480Z,12.30
2023-03-31T01:12:17.067Z,12.19
2023-03-31T01:14:43.756Z,12.19
2023-03-31T01:17:11.062Z,12.17
2023-03-31T01:20:15.059Z,12.12
2023-03-31T01:22:50.708Z,12.08
2023-03-31T01:25:23.154Z,11.97
2023-03-31T01:28:08.664Z,11.97
2023-03-31T01:34:59.736Z,12.01
2023-03-31T01:37:39.619Z,11.95
2023-03-31T01:40:24.443Z,11.86
2023-03-31T01:46:31.658Z,11.88
2023-03-31T01:49:16.889Z,11.81
2023-03-31T01:52:37.824Z,11.78
2023-03-31T01:55:25.469Z,11.78
2023-03-31T01:57:57.845Z,11.75
2023-03-31T02:01:17.117Z,11.75
2023-03-31T02:04:21.071Z,11.70
2023-03-31T02:06:56.273Z,11.59
2023-03-31T02:09:28.587Z,11.49
2023-03-31T02:11:58.266Z,11.41
2023-03-31T02:14:28.076Z,11.36
2023-03-31T02:16:58.583Z,11.31
2023-03-31T02:22:04.844Z,11.03
2023-03-31T02:24:33.033Z,10.79
2023-03-31T02:27:14.255Z,10.71
2023-03-31T02:29:41.344Z,10.29
2023-03-31T02:32:41.419Z,10.68
2023-03-31T02:39:11.471Z,10.37
2023-03-31T02:41:38.559Z,10.51
2023-03-31T02:44:05.226Z,10.77
2023-03-31T02:46:32.395Z,10.83
2023-03-31T02:49:02.752Z,10.87
2023-03-31T02:51:54.077Z,10.91
2023-03-31T02:54:44.323Z,10.91
2023-03-31T02:57:26.157Z,10.77
2023-03-31T03:00:16.306Z,10.94
2023-03-31T03:03:04.416Z,10.96
2023-03-31T03:06:07.315Z,11.00
2023-03-31T03:09:01.844Z,10.68
2023-03-31T03:11:51.325Z,10.62
2023-03-31T03:14:56.163Z,10.64
2023-03-31T03:17:50.054Z,10.52
2023-03-31T03:21:07.372Z,10.20
2023-03-31T03:24:05.013Z,10.41
2023-03-31T03:26:35.237Z,10.33
2023-03-31T03:29:01.820Z,10.40
2023-03-31T03:31:28.417Z,10.22
2023-03-31T03:33:55.064Z,10.43
2023-03-31T03:36:38.087Z,10.26
2023-03-31T03:39:07.290Z,10.35
2023-03-31T03:41:34.651Z,10.42
2023-03-31T03:44:01.416Z,10.45
2023-03-31T03:46:28.395Z,10.28
2023-03-31T03:48:55.901Z,10.32
2023-03-31T04:08:03.070Z,10.64
2023-03-31T04:10:32.513Z,10.64
2023-03-31T04:12:59.082Z,10.62
2023-03-31T04:15:25.879Z,10.62
2023-03-31T04:17:54.817Z,10.56
2023-03-31T04:22:56.773Z,10.53
2023-03-31T04:25:23.634Z,10.48
2023-03-31T04:27:54.727Z,10.39
2023-03-31T04:30:49.576Z,10.40
2023-03-31T04:33:48.298Z,10.39
2023-03-31T04:36:35.618Z,10.37
2023-03-31T04:39:02.166Z,10.33
2023-03-31T04:41:28.816Z,10.33
2023-03-31T04:43:55.698Z,10.35
2023-03-31T04:46:22.753Z,10.29
2023-03-31T04:48:49.462Z,10.20
2023-03-31T04:51:16.466Z,10.04
2023-03-31T04:53:43.089Z,10.04
2023-03-31T04:56:09.962Z,10.12
2023-03-31T04:58:37.076Z,10.15
2023-03-31T05:01:06.494Z,10.05
2023-03-31T05:03:33.982Z,10.12
2023-03-31T05:06:01.094Z,10.18
2023-03-31T05:08:27.765Z,10.25
2023-03-31T05:10:54.434Z,10.29
2023-03-31T05:13:21.322Z,10.38
2023-03-31T05:15:50.759Z,10.44
2023-03-31T05:18:18.227Z,10.15
2023-03-31T05:20:44.815Z,9.98
2023-03-31T05:23:11.453Z,10.22
2023-03-31T05:28:13.383Z,10.21
2023-03-31T05:30:40.689Z,10.19
2023-03-31T05:33:07.452Z,10.33
2023-03-31T05:35:34.155Z,10.58
2023-03-31T05:38:00.803Z,10.76
2023-03-31T05:40:27.493Z,10.93
2023-03-31T05:42:54.053Z,11.08
2023-03-31T05:45:20.804Z,11.23
2023-03-31T05:47:48.338Z,11.54
2023-03-31T05:50:15.060Z,11.74
2023-03-31T05:52:41.701Z,11.76
2023-03-31T05:55:08.867Z,12.07
2023-03-31T05:57:35.515Z,12.04
2023-03-31T06:00:02.361Z,12.19
2023-03-31T06:02:29.031Z,12.12
2023-03-31T06:04:55.654Z,12.44
2023-03-31T06:07:24.959Z,12.43
2023-03-31T06:09:51.715Z,12.61
2023-03-31T06:12:18.330Z,12.86
2023-03-31T06:14:44.890Z,13.16
2023-03-31T06:17:11.454Z,13.45
2023-03-31T06:19:38.306Z,13.59
2023-03-31T06:22:04.854Z,13.25
2023-03-31T06:24:31.438Z,13.36
2023-03-31T06:27:01.335Z,13.45
2023-03-31T06:29:27.998Z,13.69
2023-03-31T06:31:54.773Z,13.64
2023-03-31T06:34:22.022Z,14.24
2023-03-31T06:36:48.564Z,14.56
2023-03-31T06:39:15.496Z,14.34
2023-03-31T06:41:42.088Z,14.77
2023-03-31T06:46:57.730Z,15.07
2023-03-31T06:49:24.335Z,15.09
2023-03-31T06:51:51.343Z,14.91
2023-03-31T06:54:17.968Z,15.02
2023-03-31T06:56:44.601Z,15.09
2023-03-31T06:59:11.267Z,15.04
2023-03-31T07:01:39.230Z,14.92
2023-03-31T07:04:15.058Z,15.20
2023-03-31T07:06:41.963Z,15.09
2023-03-31T07:09:08.538Z,15.14
2023-03-31T07:11:35.344Z,15.27
2023-03-31T07:14:05.973Z,15.32
2023-03-31T07:16:32.766Z,15.09
2023-03-31T07:18:59.675Z,15.48
2023-03-31T07:21:26.547Z,14.64
2023-03-31T07:23:53.146Z,15.19
2023-03-31T07:26:19.838Z,14.89
2023-03-31T07:28:46.551Z,14.77
2023-03-31T07:31:14.780Z,14.36
2023-03-31T07:33:41.879Z,14.66
2023-03-31T07:36:13.890Z,15.09
2023-03-31T07:38:43.114Z,15.01
2023-03-31T07:41:14.605Z,14.58
2023-03-31T07:43:41.457Z,14.95
2023-03-31T07:46:24.198Z,15.03
2023-03-31T07:48:51.502Z,15.25
2023-03-31T07:51:20.822Z,15.50
2023-03-31T07:53:49.566Z,15.49
2023-03-31T07:56:17.067Z,16.03
2023-03-31T07:58:44.388Z,16.46
2023-03-31T08:01:17.030Z,16.80
2023-03-31T08:04:01.245Z,17.23
2023-03-31T08:06:31.173Z,18.42
2023-03-31T08:08:58.729Z,20.18
2023-03-31T08:25:43.812Z,18.15
2023-03-31T08:28:14.268Z,18.61
2023-03-31T08:30:42.140Z,19.52
2023-03-31T08:33:09.136Z,20.61
2023-03-31T08:35:36.243Z,21.00
2023-03-31T08:38:03.154Z,21.33
2023-03-31T08:40:32.380Z,21.97
2023-03-31T08:43:11.147Z,21.38
2023-03-31T08:45:42.021Z,20.98
2023-03-31T09:25:10.384Z,20.48
2023-03-31T09:27:41.362Z,20.41
2023-03-31T09:30:20.590Z,20.34
2023-03-31T09:32:52.634Z,20.06
2023-03-31T09:35:31.523Z,20.09
2023-03-31T09:43:38.570Z,19.61
2023-03-31T09:46:26.843Z,19.01
2023-03-31T10:11:13.346Z,19.30
2023-03-31T10:13:59.479Z,19.04
2023-03-31T10:16:34.011Z,19.16
2023-03-31T10:19:12.885Z,18.33
2023-03-31T10:21:39.721Z,18.41
2023-03-31T10:24:13.372Z,19.04
2023-03-31T10:32:28.908Z,18.66
2023-03-31T10:55:12.772Z,19.24
2023-03-31T10:58:06.082Z,19.45
2023-03-31T11:01:12.714Z,19.16
2023-03-31T11:04:22.603Z,19.26
2023-03-31T11:07:51.009Z,19.58
2023-03-31T11:10:29.588Z,19.67
2023-03-31T11:13:38.758Z,19.88
2023-03-31T11:20:19.949Z,20.00
2023-03-31T11:23:22.442Z,19.72
2023-03-31T11:25:57.676Z,20.38
2023-03-31T11:28:41.454Z,21.00
2023-03-31T11:31:17.117Z,20.97
2023-03-31T11:36:49.507Z,21.42
2023-03-31T11:39:59.378Z,20.93
2023-03-31T12:05:12.927Z,20.68
2023-03-31T12:08:19.064Z,20.32
2023-03-31T12:10:52.133Z,21.14
2023-03-31T12:17:37.833Z,21.60
2023-03-31T12:20:12.313Z,21.05
2023-03-31T12:22:47.311Z,21.87
2023-03-31T12:25:16.141Z,21.76
2023-03-31T12:27:44.542Z,21.88
2023-03-31T12:30:17.954Z,21.70
2023-03-31T12:32:49.871Z,21.77
2023-03-31T12:35:48.706Z,21.25
2023-03-31T12:38:42.814Z,21.91
2023-03-31T12:41:18.219Z,21.98
2023-03-31T12:43:56.706Z,21.96
2023-03-31T12:47:01.509Z,22.11
2023-03-31T12:49:40.120Z,21.08
2023-03-31T12:52:08.939Z,21.48
2023-03-31T12:55:00.329Z,21.42
2023-03-31T12:57:27.422Z,21.59
2023-03-31T13:00:17.153Z,21.17
2023-03-31T13:02:43.970Z,20.18
2023-03-31T13:05:38.271Z,20.25
2023-03-31T13:08:06.047Z,20.46
2023-03-31T13:10:33.725Z,20.92
2023-03-31T13:13:02.220Z,20.80
2023-03-31T13:15:30.303Z,21.11
2023-03-31T13:18:04.268Z,20.61
2023-03-31T13:20:36.608Z,20.65
2023-03-31T13:23:09.980Z,20.85
2023-03-31T13:25:50.673Z,20.81
2023-03-31T13:28:23.591Z,20.85
2023-03-31T13:30:51.947Z,20.90
2023-03-31T13:33:27.339Z,21.22
2023-03-31T13:36:16.074Z,21.54
2023-03-31T13:39:31.035Z,22.03
2023-03-31T13:42:37.324Z,21.71
2023-03-31T13:45:45.798Z,22.46
2023-03-31T13:53:32.699Z,21.40
2023-03-31T13:56:24.694Z,21.38
2023-03-31T13:59:37.944Z,20.98
2023-03-31T14:02:51.118Z,20.95
2023-03-31T14:05:23.434Z,21.01
2023-03-31T14:08:05.510Z,20.83
2023-03-31T14:10:35.821Z,21.01
2023-03-31T14:13:25.712Z,21.11
2023-03-31T14:15:58.686Z,20.74
2023-03-31T14:21:21.131Z,20.01
2023-03-31T14:23:53.948Z,20.18
2023-03-31T14:26:20.525Z,20.51
2023-03-31T14:29:11.224Z,20.32
2023-03-31T14:32:18.037Z,20.08
2023-03-31T14:35:29.908Z,19.87
2023-03-31T14:38:07.477Z,20.23
2023-03-31T14:40:34.304Z,19.93
2023-03-31T14:43:01.147Z,19.68
2023-03-31T14:45:31.592Z,19.52
2023-03-31T14:48:21.017Z,19.37
2023-03-31T14:50:47.599Z,18.98
2023-03-31T14:53:16.640Z,19.12
2023-03-31T14:58:34.986Z,18.69
2023-03-31T15:01:04.610Z,18.34
2023-03-31T15:03:42.176Z,18.38
2023-03-31T15:06:10.030Z,18.66
2023-03-31T15:08:38.146Z,18.57
2023-03-31T15:21:26.210Z,18.26
2023-03-31T15:49:50.721Z,18.21
2023-03-31T15:52:34.195Z,18.00
2023-03-31T15:55:01.936Z,18.23
2023-03-31T15:57:35.514Z,18.37
2023-03-31T16:00:05.500Z,17.73
2023-03-31T16:06:14.831Z,17.31
2023-03-31T16:42:20.814Z,16.59
2023-03-31T16:44:59.930Z,16.70
2023-03-31T16:47:35.623Z,16.96
2023-03-31T16:50:07.450Z,17.06
2023-03-31T16:56:30.464Z,17.04
2023-03-31T16:58:57.371Z,16.76
2023-03-31T17:01:24.001Z,16.71
2023-03-31T17:03:51.335Z,16.66
2023-03-31T17:06:17.994Z,17.00
2023-03-31T17:08:44.611Z,17.00
2023-03-31T17:13:46.625Z,16.85
2023-03-31T17:19:00.132Z,16.84
2023-03-31T17:21:28.165Z,16.80
2023-03-31T17:23:55.716Z,16.75
2023-03-31T17:26:53.375Z,16.56
2023-03-31T17:29:52.111Z,16.76
2023-03-31T17:32:39.309Z,16.41
2023-03-31T17:35:07.001Z,16.39
2023-03-31T17:37:34.474Z,16.55
2023-03-31T17:40:01.051Z,16.05
2023-03-31T17:42:27.609Z,16.21
2023-03-31T17:44:54.224Z,15.95
2023-03-31T17:47:21.044Z,16.11
2023-03-31T17:49:47.684Z,16.17
2023-03-31T17:52:14.287Z,16.07
2023-03-31T17:54:40.856Z,15.92
2023-03-31T17:57:07.755Z,15.83
2023-03-31T17:59:34.957Z,16.16
2023-03-31T18:02:02.287Z,16.34
2023-03-31T18:04:29.057Z,16.01
2023-03-31T18:06:56.495Z,15.98
2023-03-31T18:17:22.101Z,16.24
2023-03-31T18:19:48.712Z,16.03
2023-03-31T18:22:15.273Z,16.03
2023-03-31T18:24:41.900Z,16.14
2023-03-31T18:27:08.594Z,16.14
2023-03-31T18:29:57.181Z,16.25
2023-03-31T18:32:24.312Z,16.34
2023-03-31T18:34:59.428Z,16.33
2023-03-31T18:37:26.012Z,16.31
2023-03-31T18:43:59.142Z,16.31
2023-03-31T18:46:25.807Z,16.06
2023-03-31T18:48:52.515Z,15.98
2023-03-31T18:51:38.705Z,16.12
2023-03-31T18:54:05.727Z,16.14
2023-03-31T18:56:32.309Z,16.11
2023-03-31T19:01:37.366Z,16.22
2023-03-31T19:04:03.965Z,16.11
2023-03-31T19:06:34.032Z,16.05
2023-03-31T19:13:28.762Z,15.80
2023-03-31T19:15:58.017Z,15.46
2023-03-31T19:18:25.825Z,15.26
2023-03-31T19:20:53.725Z,14.84
2023-03-31T19:23:20.486Z,14.40
2023-03-31T19:25:51.983Z,14.32
2023-03-31T19:28:19.176Z,14.09
2023-03-31T19:30:54.952Z,13.84
2023-03-31T19:33:21.830Z,13.54
2023-03-31T19:35:48.799Z,13.68
2023-03-31T19:38:15.708Z,13.82
2023-03-31T19:40:42.547Z,13.76
2023-03-31T19:43:21.351Z,13.68
2023-03-31T19:45:49.237Z,13.41
2023-03-31T19:48:16.590Z,13.57
2023-03-31T19:50:51.806Z,13.04
2023-03-31T19:53:20.241Z,13.15
2023-03-31T19:56:04.965Z,12.98
2023-03-31T19:58:50.392Z,13.12
2023-03-31T20:01:20.987Z,12.67
2023-03-31T20:03:52.886Z,12.20
2023-03-31T20:06:37.162Z,12.61
2023-03-31T20:09:06.374Z,12.56
2023-03-31T20:11:33.362Z,12.34
2023-03-31T20:16:42.096Z,11.66
2023-03-31T20:19:08.964Z,11.57
2023-03-31T20:21:37.958Z,11.51
2023-03-31T20:24:05.772Z,11.61
2023-03-31T20:26:33.978Z,11.60
2023-03-31T20:29:50.615Z,11.58
2023-03-31T20:33:04.209Z,11.83
2023-03-31T20:35:47.088Z,11.46
2023-03-31T20:38:13.699Z,11.41
2023-03-31T20:40:40.808Z,11.05
2023-03-31T20:43:07.405Z,11.12
2023-03-31T20:45:33.987Z,11.09
2023-03-31T20:48:25.480Z,11.26
2023-03-31T20:51:09.248Z,11.05
2023-03-31T20:53:42.033Z,11.13
2023-03-31T20:56:13.041Z,11.01
2023-03-31T20:59:20.444Z,11.00
2023-03-31T21:02:18.235Z,10.86
2023-03-31T21:04:53.143Z,10.96
2023-03-31T21:07:19.808Z,10.81
2023-03-31T21:09:46.700Z,11.02
2023-03-31T21:12:13.360Z,10.86
2023-03-31T21:14:42.051Z,10.72
2023-03-31T21:17:08.684Z,10.83
2023-03-31T21:19:35.484Z,10.96
2023-03-31T21:22:02.034Z,11.19
2023-03-31T21:24:28.582Z,10.97
2023-03-31T21:26:55.240Z,11.15
2023-03-31T21:29:21.839Z,10.97
2023-03-31T21:31:48.460Z,10.94
2023-03-31T21:34:15.053Z,10.98
2023-03-31T21:36:41.645Z,11.13
2023-03-31T21:39:09.838Z,11.00
2023-03-31T21:41:37.759Z,11.13
2023-03-31T21:44:04.399Z,11.49
2023-03-31T21:46:33.046Z,11.52
2023-03-31T21:49:01.145Z,11.62
2023-03-31T21:51:28.678Z,11.48
2023-03-31T21:53:55.858Z,11.46
2023-03-31T21:56:32.092Z,11.41
2023-03-31T21:58:59.684Z,11.25
2023-03-31T22:01:26.698Z,11.19
2023-03-31T22:11:52.669Z,11.28
2023-03-31T22:14:19.363Z,11.33
2023-03-31T22:16:45.984Z,11.20
2023-03-31T22:19:27.872Z,11.23
2023-03-31T22:21:55.419Z,11.39
2023-03-31T22:24:22.027Z,11.72
2023-03-31T22:26:48.611Z,11.97
2023-03-31T22:29:16.281Z,12.08
2023-03-31T22:31:42.870Z,12.03
2023-03-31T22:34:09.450Z,12.10
2023-03-31T22:36:36.179Z,12.29
2023-03-31T22:39:02.803Z,12.33
2023-03-31T22:41:29.406Z,12.41
2023-03-31T22:44:39.762Z,12.42
2023-03-31T22:47:53.892Z,12.55
2023-03-31T22:50:20.549Z,12.57
2023-03-31T22:52:47.166Z,12.52
2023-03-31T22:55:13.847Z,12.49
2023-03-31T22:57:40.540Z,12.54
2023-03-31T23:00:07.782Z,12.50
2023-03-31T23:02:34.815Z,12.53
2023-03-31T23:05:24.425Z,12.53
2023-03-31T23:07:51.718Z,12.58
2023-03-31T23:10:18.683Z,12.55
2023-03-31T23:12:45.511Z,12.51
2023-03-31T23:15:12.317Z,12.48
2023-03-31T23:17:38.924Z,12.51
2023-03-31T23:20:30.557Z,12.49
2023-03-31T23:23:17.056Z,12.47
2023-03-31T23:25:43.655Z,12.39
2023-03-31T23:28:10.201Z,12.19
2023-03-31T23:30:36.788Z,12.02
2023-03-31T23:33:03.390Z,12.01
2023-03-31T23:35:30.269Z,12.09
2023-03-31T23:38:16.053Z,12.17
2023-03-31T23:40:44.665Z,11.80
2023-03-31T23:43:11.217Z,11.83
2023-03-31T23:45:37.749Z,11.82
2023-03-31T23:48:52.735Z,11.78
2023-03-31T23:54:32.722Z,11.71
2023-03-31T23:56:59.293Z,11.73
2023-03-31T23:59:25.884Z,11.48
